Airfield :
LOGIN :

Register | Disclaimer

   EN    FR    IT 

 










Legend :    VFR   Marginal VFR   IFR   Intensive IFR   Very Intensive IFR
Visi :
Ceiling :
>= 8 km
>= 3000ft
5 to 8 km
1000 to 3000 ft
1500m to 5 km
500 to 1000 ft
800 to 1500m
200 to 500 ft
< 800m
< 200 ft
Symbols :   Thunderstorms  Fog  Heavy snow  Heavy precipitations  Wind > 20 kt
SIGMETs :     Misc.  Thunderstorms  Icing  Turbulence  Mountain Waves  Volcanic Ashes







- Airport Elevation : 697 ft
- IATA code : PEG


LIRZ - San Edigio Perugia

CURRENT METAR :
  • 240235Z AUTO 03018G28KT 9999 NCD 03/M06 Q1030

EXPIRED METARs :
  • 240150Z AUTO 03018KT 9999 NCD 03/M06 Q1030
  • 240050Z AUTO 03022KT 9999 NCD 03/M06 Q1030
  • 240007Z AUTO 03018G29KT 9999 NCD 03/M05 Q1030

TAF TAF LIRZ
Valid from the 24 at 00:00 until the 25 at 00:00 UTC


232300Z 2400/2424 03015KT CAVOK
No reported NOTAMs for that airfield.
4 SIGMETs reported for the Roma FIR (LIRR) :
 
Severe turbulence
LIRR SIGMET 2 VALID 240315/240615 LIIB
LIRR ROMA FIR SEV TURB FCST ENTIRE FIR FL005/140 STNR NC=
Severe turbulence
LIRR SIGMET 19 VALID 240015/240315 LIIB
LIRR ROMA FIR SEV TURB FCST ENTIRE FIR FL005/140 STNR NC=
Severe turbulence
LIRR SIGMET 18 VALID 240015/240315 LIIB
LIRR ROMA FIR SEV TURB FCST SE OF LINE N4335 E01321 - N3814 E00927 FL200/380 MOV SE NC=
Severe turbulence
LIRR SIGMET 1 VALID 240315/240615 LIIB
LIRR ROMA FIR SEV TURB FCST SE OF LINE N4335 E01321 - N3814 E00927 FL200/380 MOV SE NC=



MET'MAP, your aeronautical weather chart ! - Copyright ORBIFLY December 2007 - Disclaimer

ORBIFLY MET'MAP TEAM :

Programming & Development : Alexandra Zaïnal
Concept & Development : Baudouin d'Aumeries
Co-Development & Prog : Marc-Olivier Méhu
Technical & hardware support : Manuel Goepfert

Contact : metmap@orbifly.com




SOURCES & CREDITS :

   NOAA